Terminal Aerodrome Forecast
Issued by NWS Quad Cities IA IL

Home | Current Version | Previous Version | Text Only | Print | Product List | Glossary Off
Versions: 1 2 3 4 5 6 7 8 9 10 11 12 13 14

000
FTUS43 KDVN 021120
TAFMLI
TAF
KMLI 021120Z 0212/0312 22008KT P6SM SCT080
     FM021430 24011G20KT P6SM VCTS SCT080CB
     FM021700 24015G24KT P6SM FEW080
     FM030000 23011KT P6SM SCT050 PROB30 0300/0304 4SM TSRA BKN050CB
     FM030700 30005KT P6SM SKC=

USA.gov is the U.S. government's official web portal to all federal, state and local government web resources and services.